createdAt,value
2019-04-23T00:02:39.341Z,9.50
2019-04-23T00:05:11.288Z,9.50
2019-04-23T00:07:49.793Z,9.50
2019-04-23T00:10:19.355Z,9.50
2019-04-23T00:12:53.040Z,9.50
2019-04-23T00:15:17.402Z,9.60
2019-04-23T00:17:55.334Z,9.60
2019-04-23T00:20:37.429Z,9.70
2019-04-23T00:26:19.801Z,9.70
2019-04-23T00:28:45.734Z,9.70
2019-04-23T00:31:18.373Z,9.70
2019-04-23T00:33:55.642Z,9.70
2019-04-23T00:36:25.895Z,9.70
2019-04-23T00:38:55.837Z,9.70
2019-04-23T00:41:31.181Z,9.70
2019-04-23T00:44:01.883Z,9.70
2019-04-23T00:49:18.090Z,9.60
2019-04-23T00:51:49.723Z,9.50
2019-04-23T00:54:20.798Z,9.50
2019-04-23T00:59:27.021Z,9.40
2019-04-23T01:02:02.748Z,9.40
2019-04-23T01:04:39.811Z,9.40
2019-04-23T01:07:12.119Z,9.40
2019-04-23T01:09:56.112Z,9.30
2019-04-23T01:12:25.653Z,9.20
2019-04-23T01:14:56.290Z,9.10
2019-04-23T01:17:39.906Z,9.10
2019-04-23T01:20:16.214Z,9.10
2019-04-23T01:22:33.883Z,9.00
2019-04-23T01:25:21.131Z,9.10
2019-04-23T01:28:15.986Z,9.00
2019-04-23T01:30:58.523Z,9.00
2019-04-23T01:33:33.036Z,8.90
2019-04-23T01:38:38.946Z,8.90
2019-04-23T01:41:13.151Z,8.80
2019-04-23T01:43:41.094Z,8.90
2019-04-23T01:46:12.890Z,8.90
2019-04-23T01:48:51.936Z,8.80
2019-04-23T01:51:32.762Z,8.80
2019-04-23T01:53:57.141Z,8.80
2019-04-23T01:56:30.717Z,8.80
2019-04-23T01:59:08.392Z,8.80
2019-04-23T02:01:46.231Z,8.80
2019-04-23T02:04:18.779Z,8.80
2019-04-23T02:06:44.919Z,8.80
2019-04-23T02:09:24.983Z,8.80
2019-04-23T02:11:57.468Z,8.80
2019-04-23T02:14:32.142Z,8.80
2019-04-23T02:17:01.202Z,8.80
2019-04-23T02:19:43.314Z,8.80
2019-04-23T02:22:27.391Z,8.90
2019-04-23T02:24:55.839Z,8.90
2019-04-23T02:30:20.965Z,8.90
2019-04-23T02:32:45.724Z,8.90
2019-04-23T02:35:24.093Z,8.90
2019-04-23T02:38:00.603Z,8.90
2019-04-23T02:40:30.371Z,8.90
2019-04-23T02:45:39.843Z,8.80
2019-04-23T02:48:10.487Z,8.90
2019-04-23T02:50:49.140Z,8.80
2019-04-23T02:53:14.818Z,8.80
2019-04-23T02:58:38.985Z,8.80
2019-04-23T03:01:14.955Z,8.80
2019-04-23T03:06:05.803Z,8.80
2019-04-23T03:08:42.284Z,8.80
2019-04-23T03:13:54.086Z,8.70
2019-04-23T03:16:33.899Z,8.70
2019-04-23T03:21:56.126Z,8.80
2019-04-23T03:27:19.271Z,8.70
2019-04-23T03:29:49.773Z,8.70
2019-04-23T03:40:03.943Z,8.70
2019-04-23T03:42:38.904Z,8.70
2019-04-23T03:47:45.615Z,8.80
2019-04-23T03:50:14.745Z,8.80
2019-04-23T03:55:30.278Z,8.90
2019-04-23T03:57:52.602Z,8.90
2019-04-23T04:00:37.083Z,8.90
2019-04-23T04:03:10.927Z,9.00
2019-04-23T04:05:45.498Z,9.00
2019-04-23T04:13:24.453Z,9.20
2019-04-23T04:15:57.045Z,9.20
2019-04-23T04:21:09.898Z,9.40
2019-04-23T04:23:42.715Z,9.40
2019-04-23T04:26:05.283Z,9.50
2019-04-23T04:31:15.783Z,10.70
2019-04-23T04:38:54.489Z,14.30
2019-04-23T04:44:23.748Z,15.00
2019-04-23T04:46:39.646Z,15.80
2019-04-23T04:49:11.949Z,16.00
2019-04-23T04:52:00.974Z,17.20
2019-04-23T04:56:49.810Z,16.90
2019-04-23T04:59:25.919Z,17.40
2019-04-23T05:02:08.987Z,17.50
2019-04-23T05:04:46.204Z,17.10
2019-04-23T05:07:32.062Z,17.50
2019-04-23T05:12:18.468Z,16.50
2019-04-23T05:15:04.785Z,18.20
2019-04-23T05:18:20.430Z,17.90
2019-04-23T05:23:42.762Z,18.60
2019-04-23T05:25:33.116Z,18.40
2019-04-23T05:30:52.084Z,17.90
2019-04-23T05:33:23.551Z,18.60
2019-04-23T05:36:45.488Z,18.90
2019-04-23T05:38:50.699Z,19.30
2019-04-23T05:41:11.887Z,18.90
2019-04-23T05:43:41.000Z,19.70
2019-04-23T05:46:22.152Z,19.50
2019-04-23T05:48:50.855Z,19.20
2019-04-23T05:53:56.070Z,19.50
2019-04-23T05:56:27.483Z,19.80
2019-04-23T05:59:06.180Z,20.20
2019-04-23T06:04:21.548Z,20.30
2019-04-23T06:09:18.873Z,20.70
2019-04-23T06:14:24.952Z,20.40
2019-04-23T06:17:02.209Z,20.70
2019-04-23T06:19:30.493Z,20.00
2019-04-23T06:27:15.097Z,19.70
2019-04-23T06:29:45.050Z,19.50
2019-04-23T06:32:22.744Z,18.00
2019-04-23T06:34:53.026Z,18.90
2019-04-23T06:37:46.668Z,18.60
2019-04-23T06:40:02.581Z,18.50
2019-04-23T06:42:52.071Z,18.30
2019-04-23T06:45:27.733Z,18.40
2019-04-23T06:48:02.247Z,18.10
2019-04-23T06:50:35.527Z,18.60
2019-04-23T06:53:04.141Z,18.40
2019-04-23T06:55:44.580Z,18.40
2019-04-23T06:58:26.286Z,18.00
2019-04-23T07:00:59.106Z,17.30
2019-04-23T07:03:33.900Z,17.40
2019-04-23T07:11:23.777Z,17.90
2019-04-23T07:16:21.488Z,18.30
2019-04-23T07:18:57.519Z,18.60
2019-04-23T07:21:27.980Z,18.60
2019-04-23T07:24:05.201Z,17.90
2019-04-23T07:26:39.133Z,17.80
2019-04-23T07:29:15.917Z,17.40
2019-04-23T07:31:52.146Z,17.20
2019-04-23T07:34:18.063Z,17.40
2019-04-23T07:36:59.082Z,17.50
2019-04-23T07:40:20.205Z,17.80
2019-04-23T07:45:24.338Z,18.40
2019-04-23T07:53:22.885Z,17.30
2019-04-23T07:55:56.821Z,17.70
2019-04-23T07:58:29.126Z,18.40
2019-04-23T08:03:40.396Z,18.00
2019-04-23T08:06:07.252Z,17.60
2019-04-23T08:08:42.876Z,17.30
2019-04-23T08:16:34.327Z,18.10
2019-04-23T08:18:57.751Z,18.10
2019-04-23T08:21:32.101Z,18.30
2019-04-23T08:24:29.222Z,18.30
2019-04-23T08:27:12.935Z,18.50
2019-04-23T08:29:36.383Z,18.00
2019-04-23T08:32:19.556Z,17.70
2019-04-23T08:34:58.609Z,17.80
2019-04-23T08:37:54.237Z,18.00
2019-04-23T08:45:28.600Z,18.80
2019-04-23T08:48:21.720Z,18.30
2019-04-23T08:50:50.254Z,18.50
2019-04-23T08:53:35.773Z,18.60
2019-04-23T08:56:02.009Z,18.90
2019-04-23T08:58:43.628Z,19.00
2019-04-23T09:01:12.239Z,19.40
2019-04-23T09:03:44.627Z,19.30
2019-04-23T09:06:20.303Z,19.10
2019-04-23T09:08:50.248Z,19.10
2019-04-23T09:11:45.913Z,19.40
2019-04-23T09:14:04.603Z,19.70
2019-04-23T09:16:37.817Z,19.80
2019-04-23T09:21:39.938Z,19.20
2019-04-23T09:24:09.268Z,18.80
2019-04-23T09:26:53.313Z,18.60
2019-04-23T09:29:32.106Z,19.10
2019-04-23T09:35:14.528Z,19.10
2019-04-23T09:37:59.750Z,19.40
2019-04-23T09:41:12.753Z,19.20
2019-04-23T09:43:48.534Z,19.00
2019-04-23T09:46:49.522Z,19.10
2019-04-23T09:52:05.616Z,18.80
2019-04-23T09:54:34.003Z,19.00
2019-04-23T09:57:00.345Z,19.20
2019-04-23T09:59:47.247Z,19.10
2019-04-23T10:02:01.271Z,19.20
2019-04-23T10:04:32.016Z,19.10
2019-04-23T10:07:05.452Z,19.30
2019-04-23T10:09:27.669Z,19.50
2019-04-23T10:12:00.983Z,19.20
2019-04-23T10:14:34.553Z,19.20
2019-04-23T10:17:08.343Z,19.10
2019-04-23T10:19:40.737Z,19.20
2019-04-23T10:22:13.381Z,19.10
2019-04-23T10:24:45.870Z,19.00
2019-04-23T10:27:18.873Z,18.90
2019-04-23T10:29:51.874Z,18.80
2019-04-23T10:32:25.466Z,19.00
2019-04-23T10:35:12.401Z,19.10
2019-04-23T10:37:40.274Z,19.10
2019-04-23T10:40:13.181Z,19.30
2019-04-23T10:42:44.628Z,19.40
2019-04-23T10:45:42.437Z,19.80
2019-04-23T10:49:00.530Z,20.00
2019-04-23T10:51:28.821Z,20.10
2019-04-23T10:54:18.177Z,19.50
2019-04-23T10:56:40.806Z,19.60
2019-04-23T10:59:34.985Z,19.40
2019-04-23T11:02:26.802Z,19.60
2019-04-23T11:07:28.518Z,18.80
2019-04-23T11:12:42.362Z,19.40
2019-04-23T11:17:50.216Z,19.50
2019-04-23T11:28:05.612Z,19.80
2019-04-23T11:30:41.426Z,19.70
2019-04-23T11:33:15.709Z,20.00
2019-04-23T11:36:01.327Z,19.70
2019-04-23T11:40:55.346Z,20.30
2019-04-23T11:46:29.347Z,19.60
2019-04-23T11:48:51.948Z,19.50
2019-04-23T11:53:54.358Z,19.60
2019-04-23T11:56:35.351Z,19.50
2019-04-23T11:58:52.909Z,19.20
2019-04-23T12:04:49.906Z,19.30
2019-04-23T12:10:07.492Z,19.60
2019-04-23T12:15:13.307Z,20.00
2019-04-23T12:18:03.361Z,20.20
2019-04-23T12:27:47.008Z,20.00
2019-04-23T12:30:40.735Z,19.70
2019-04-23T12:33:12.950Z,19.80
2019-04-23T12:35:39.302Z,20.00
2019-04-23T12:41:03.865Z,20.00
2019-04-23T12:46:39.910Z,20.40
2019-04-23T12:49:21.681Z,20.70
2019-04-23T12:51:53.528Z,20.50
2019-04-23T12:54:24.973Z,20.50
2019-04-23T12:57:00.654Z,20.30
2019-04-23T12:59:23.811Z,20.10
2019-04-23T13:02:22.877Z,20.20
2019-04-23T13:04:38.108Z,20.20
2019-04-23T13:07:13.603Z,19.90
2019-04-23T13:09:54.483Z,20.20
2019-04-23T13:12:32.798Z,20.20
2019-04-23T13:14:57.655Z,19.90
2019-04-23T13:20:03.700Z,19.90
2019-04-23T13:22:43.086Z,19.70
2019-04-23T13:25:47.304Z,19.60
2019-04-23T13:30:56.572Z,19.90
2019-04-23T13:36:12.037Z,20.20
2019-04-23T13:46:14.129Z,20.30
2019-04-23T13:48:42.142Z,20.00
2019-04-23T13:53:53.583Z,19.70
2019-04-23T13:56:36.775Z,19.90
2019-04-23T13:59:16.640Z,20.00
2019-04-23T14:04:43.145Z,19.60
2019-04-23T14:12:20.362Z,19.90
2019-04-23T14:14:56.373Z,20.10
2019-04-23T14:17:37.997Z,20.10
2019-04-23T14:20:03.822Z,19.80
2019-04-23T14:23:05.297Z,19.90
2019-04-23T14:25:10.273Z,19.90
2019-04-23T14:27:51.547Z,19.60
2019-04-23T14:32:55.813Z,19.70
2019-04-23T14:35:25.552Z,19.70
2019-04-23T14:38:12.924Z,19.70
2019-04-23T14:40:35.280Z,19.60
2019-04-23T14:46:25.019Z,19.70
2019-04-23T14:48:31.321Z,19.80
2019-04-23T14:51:02.426Z,19.70
2019-04-23T14:53:33.708Z,19.40
2019-04-23T14:58:42.852Z,19.60
2019-04-23T15:03:47.101Z,19.60
2019-04-23T15:09:13.945Z,19.70
2019-04-23T15:11:36.912Z,19.70
2019-04-23T15:14:01.970Z,19.80
2019-04-23T15:16:39.755Z,19.90
2019-04-23T15:22:05.163Z,19.70
2019-04-23T15:24:30.633Z,19.70
2019-04-23T15:29:27.467Z,19.60
2019-04-23T15:34:48.987Z,19.40
2019-04-23T15:37:32.299Z,19.50
2019-04-23T15:45:01.601Z,19.40
2019-04-23T15:52:56.245Z,19.20
2019-04-23T15:55:13.751Z,19.10
2019-04-23T16:00:17.861Z,19.10
2019-04-23T16:02:31.078Z,19.10
2019-04-23T16:05:03.755Z,19.20
2019-04-23T16:07:54.878Z,19.10
2019-04-23T16:10:38.036Z,19.10
2019-04-23T16:13:29.314Z,19.00
2019-04-23T16:15:54.347Z,19.00
2019-04-23T16:18:45.388Z,19.00
2019-04-23T16:21:27.273Z,18.90
2019-04-23T16:23:42.032Z,18.90
2019-04-23T16:26:24.248Z,18.90
2019-04-23T16:31:26.502Z,18.80
2019-04-23T16:34:17.772Z,18.80
2019-04-23T16:36:41.552Z,18.70
2019-04-23T16:39:12.235Z,18.70
2019-04-23T16:41:52.126Z,18.80
2019-04-23T16:44:34.972Z,18.80
2019-04-23T16:46:56.320Z,18.90
2019-04-23T16:49:33.069Z,18.80
2019-04-23T16:52:01.311Z,18.80
2019-04-23T16:54:42.250Z,18.70
2019-04-23T16:57:24.369Z,18.70
2019-04-23T16:59:49.459Z,18.50
2019-04-23T17:02:19.416Z,18.50
2019-04-23T17:04:56.654Z,18.40
2019-04-23T17:07:20.337Z,18.40
2019-04-23T17:12:21.102Z,18.30
2019-04-23T17:15:09.397Z,18.20
2019-04-23T17:17:40.838Z,18.20
2019-04-23T17:20:27.185Z,18.00
2019-04-23T17:22:56.625Z,17.90
2019-04-23T17:25:26.177Z,17.90
2019-04-23T17:28:07.166Z,17.80
2019-04-23T17:30:32.334Z,17.80
2019-04-23T17:36:21.159Z,17.70
2019-04-23T17:41:41.784Z,17.50
2019-04-23T17:44:18.083Z,17.50
2019-04-23T17:46:42.798Z,17.40
2019-04-23T17:49:25.756Z,17.30
2019-04-23T17:52:05.412Z,17.20
2019-04-23T17:54:54.769Z,17.10
2019-04-23T17:57:28.334Z,17.10
2019-04-23T18:03:01.273Z,16.90
2019-04-23T18:05:33.158Z,16.80
2019-04-23T18:08:21.297Z,16.80
2019-04-23T18:11:14.410Z,16.80
2019-04-23T18:13:43.590Z,16.70
2019-04-23T18:16:48.105Z,16.70
2019-04-23T18:19:29.825Z,16.60
2019-04-23T18:22:35.525Z,16.50
2019-04-23T18:25:30.817Z,16.50
2019-04-23T18:28:24.596Z,16.40
2019-04-23T18:31:11.102Z,16.40
2019-04-23T18:34:05.374Z,16.30
2019-04-23T18:36:21.719Z,16.30
2019-04-23T18:38:59.812Z,16.20
2019-04-23T18:41:33.508Z,16.20
2019-04-23T18:46:43.769Z,16.20
2019-04-23T18:49:22.210Z,16.20
2019-04-23T18:51:52.131Z,16.10
2019-04-23T18:54:26.871Z,16.10
2019-04-23T18:57:09.961Z,16.10
2019-04-23T18:59:37.267Z,16.10
2019-04-23T19:02:51.787Z,16.00
2019-04-23T19:05:15.158Z,16.00
2019-04-23T19:08:06.954Z,16.00
2019-04-23T19:11:02.048Z,16.00
2019-04-23T19:13:31.210Z,15.90
2019-04-23T19:15:59.834Z,15.80
2019-04-23T19:18:40.502Z,15.80
2019-04-23T19:21:15.597Z,15.80
2019-04-23T19:24:03.350Z,15.80
2019-04-23T19:26:49.803Z,15.70
2019-04-23T19:28:56.148Z,15.60
2019-04-23T19:31:55.665Z,15.60
2019-04-23T19:34:36.066Z,15.60
2019-04-23T19:37:11.035Z,15.50
2019-04-23T19:39:48.501Z,15.40
2019-04-23T19:42:36.554Z,15.40
2019-04-23T19:44:43.821Z,15.30
2019-04-23T19:49:50.203Z,15.20
2019-04-23T19:52:35.019Z,15.10
2019-04-23T19:54:58.595Z,15.10
2019-04-23T19:57:50.525Z,15.00
2019-04-23T19:59:55.577Z,14.90
2019-04-23T20:03:07.729Z,14.90
2019-04-23T20:05:13.343Z,14.80
2019-04-23T20:07:54.875Z,14.80
2019-04-23T20:10:21.345Z,14.70
2019-04-23T20:12:51.878Z,14.70
2019-04-23T20:15:41.129Z,14.60
2019-04-23T20:18:01.089Z,14.50
2019-04-23T20:20:49.603Z,14.40
2019-04-23T20:23:24.840Z,14.40
2019-04-23T20:26:10.351Z,14.30
2019-04-23T20:28:51.205Z,14.20
2019-04-23T20:32:06.013Z,14.20
2019-04-23T20:36:49.418Z,14.20
2019-04-23T20:39:16.455Z,14.10
2019-04-23T20:44:44.822Z,14.10
2019-04-23T20:49:43.112Z,14.00
2019-04-23T20:52:07.430Z,14.00
2019-04-23T20:54:57.011Z,13.90
2019-04-23T21:00:12.785Z,13.90
2019-04-23T21:05:24.804Z,13.80
2019-04-23T21:08:06.064Z,13.80
2019-04-23T21:10:48.659Z,13.70
2019-04-23T21:15:54.355Z,13.60
2019-04-23T21:23:38.722Z,13.60
2019-04-23T21:25:58.922Z,13.50
2019-04-23T21:31:19.010Z,13.50
2019-04-23T21:36:49.413Z,13.50
2019-04-23T21:42:35.671Z,13.40
2019-04-23T21:45:00.873Z,13.40
2019-04-23T21:47:46.004Z,13.40
2019-04-23T21:52:51.028Z,13.40
2019-04-23T21:55:26.553Z,13.30
2019-04-23T21:57:59.954Z,13.30
2019-04-23T22:00:33.930Z,13.30
2019-04-23T22:03:11.722Z,13.30
2019-04-23T22:11:00.453Z,13.30
2019-04-23T22:13:22.270Z,13.20
2019-04-23T22:16:01.326Z,13.20
2019-04-23T22:18:22.032Z,13.20
2019-04-23T22:21:05.159Z,13.20
2019-04-23T22:23:40.837Z,13.10
2019-04-23T22:28:48.911Z,13.00
2019-04-23T22:33:53.444Z,12.90
2019-04-23T22:36:21.261Z,12.80
2019-04-23T22:38:59.441Z,12.80
2019-04-23T22:41:38.029Z,12.70
2019-04-23T22:46:53.537Z,12.70
2019-04-23T22:49:24.825Z,12.60
2019-04-23T22:54:23.334Z,12.60
2019-04-23T22:59:32.494Z,12.50
2019-04-23T23:02:15.113Z,12.50
2019-04-23T23:05:09.963Z,12.50
2019-04-23T23:07:29.140Z,12.50
2019-04-23T23:10:07.013Z,12.40
2019-04-23T23:12:48.756Z,12.30
2019-04-23T23:15:19.042Z,12.30
2019-04-23T23:17:53.204Z,12.30
2019-04-23T23:20:20.591Z,12.20
2019-04-23T23:23:06.463Z,12.20
2019-04-23T23:25:25.506Z,12.20
2019-04-23T23:28:07.975Z,12.10
2019-04-23T23:30:38.831Z,12.10
2019-04-23T23:33:11.286Z,12.10
2019-04-23T23:35:52.200Z,12.00
2019-04-23T23:40:57.189Z,11.90
2019-04-23T23:43:25.800Z,11.90
2019-04-23T23:46:16.955Z,11.90
2019-04-23T23:51:09.889Z,11.90
2019-04-23T23:53:55.115Z,11.80
2019-04-23T23:56:19.496Z,11.80
